createdAt,value
2023-04-26T00:00:01.718Z,46.98
2023-04-26T00:02:35.860Z,47.90
2023-04-26T00:05:06.746Z,47.80
2023-04-26T00:07:39.482Z,47.57
2023-04-26T00:10:11.056Z,46.55
2023-04-26T00:12:42.718Z,47.42
2023-04-26T00:15:13.514Z,46.66
2023-04-26T00:17:44.499Z,47.42
2023-04-26T00:20:17.880Z,47.41
2023-04-26T00:22:48.245Z,47.44
2023-04-26T00:25:19.014Z,45.96
2023-04-26T00:27:49.532Z,45.32
2023-04-26T00:30:20.059Z,46.09
2023-04-26T00:32:50.620Z,45.24
2023-04-26T00:35:21.974Z,44.29
2023-04-26T00:37:52.360Z,44.26
2023-04-26T00:40:22.832Z,45.00
2023-04-26T00:43:02.069Z,45.49
2023-04-26T00:45:33.514Z,45.88
2023-04-26T00:48:05.869Z,45.10
2023-04-26T00:50:36.920Z,45.82
2023-04-26T00:53:09.201Z,45.82
2023-04-26T00:55:40.541Z,44.97
2023-04-26T00:58:11.060Z,44.53
2023-04-26T01:00:44.355Z,45.01
2023-04-26T01:03:15.082Z,43.86
2023-04-26T01:05:46.382Z,44.82
2023-04-26T01:08:18.793Z,44.32
2023-04-26T01:10:50.814Z,44.70
2023-04-26T01:13:22.333Z,43.94
2023-04-26T01:15:54.042Z,44.45
2023-04-26T01:18:24.537Z,43.65
2023-04-26T01:20:55.619Z,42.90
2023-04-26T01:23:26.979Z,43.23
2023-04-26T01:25:57.885Z,42.84
2023-04-26T01:28:28.300Z,42.32
2023-04-26T01:30:58.972Z,43.16
2023-04-26T01:33:29.577Z,41.89
2023-04-26T01:35:59.744Z,42.05
2023-04-26T01:38:30.113Z,43.13
2023-04-26T01:41:00.530Z,42.74
2023-04-26T01:43:30.993Z,42.80
2023-04-26T01:46:01.696Z,41.92
2023-04-26T01:48:52.648Z,42.07
2023-04-26T01:51:23.434Z,41.64
2023-04-26T01:53:54.736Z,43.01
2023-04-26T01:56:26.612Z,42.96
2023-04-26T01:58:58.012Z,42.76
2023-04-26T02:01:28.826Z,41.78
2023-04-26T02:03:59.371Z,41.47
2023-04-26T02:06:29.606Z,41.84
2023-04-26T02:08:59.973Z,41.50
2023-04-26T02:11:30.643Z,42.19
2023-04-26T02:14:01.033Z,41.93
2023-04-26T02:16:31.702Z,41.26
2023-04-26T02:19:02.381Z,41.62
2023-04-26T02:21:32.672Z,40.84
2023-04-26T02:24:03.193Z,41.71
2023-04-26T02:26:34.301Z,41.62
2023-04-26T02:29:04.691Z,40.93
2023-04-26T02:31:35.312Z,41.17
2023-04-26T02:34:07.794Z,41.55
2023-04-26T02:36:38.593Z,40.95
2023-04-26T02:39:09.095Z,40.91
2023-04-26T02:41:49.188Z,40.94
2023-04-26T02:44:20.718Z,41.97
2023-04-26T02:46:51.429Z,41.63
2023-04-26T02:49:21.837Z,41.48
2023-04-26T02:51:52.509Z,41.11
2023-04-26T02:54:23.727Z,40.07
2023-04-26T02:56:54.735Z,40.42
2023-04-26T02:59:25.796Z,40.01
2023-04-26T03:01:58.335Z,40.73
2023-04-26T03:04:30.338Z,39.57
2023-04-26T03:07:00.952Z,40.34
2023-04-26T03:09:32.487Z,40.59
2023-04-26T03:12:04.756Z,41.38
2023-04-26T03:14:35.496Z,42.04
2023-04-26T03:17:06.727Z,43.21
2023-04-26T03:19:40.563Z,43.30
2023-04-26T03:22:12.916Z,44.55
2023-04-26T03:24:58.548Z,44.17
2023-04-26T03:27:30.606Z,44.57
2023-04-26T03:30:01.316Z,44.27
2023-04-26T03:32:32.993Z,44.65
2023-04-26T03:35:04.183Z,45.34
2023-04-26T03:37:35.201Z,45.23
2023-04-26T03:40:11.841Z,44.71
2023-04-26T03:42:42.685Z,46.32
2023-04-26T03:45:13.855Z,45.56
2023-04-26T03:47:44.270Z,45.18
2023-04-26T03:50:14.748Z,45.54
2023-04-26T03:52:45.111Z,45.08
2023-04-26T03:55:15.644Z,46.25
2023-04-26T03:57:46.421Z,44.99
2023-04-26T04:00:17.825Z,45.59
2023-04-26T04:02:50.424Z,45.35
2023-04-26T04:05:27.218Z,44.65
2023-04-26T04:07:58.389Z,45.16
2023-04-26T04:10:28.915Z,44.81
2023-04-26T04:12:59.416Z,44.43
2023-04-26T04:15:31.235Z,44.00
2023-04-26T04:18:01.736Z,44.00
2023-04-26T04:20:32.670Z,44.21
2023-04-26T04:23:05.908Z,43.55
2023-04-26T04:25:36.755Z,44.82
2023-04-26T04:28:10.927Z,43.90
2023-04-26T04:30:41.669Z,42.96
2023-04-26T04:33:12.163Z,44.14
2023-04-26T04:35:46.454Z,43.81
2023-04-26T04:38:16.895Z,42.17
2023-04-26T04:40:53.755Z,41.85
2023-04-26T04:43:25.054Z,42.63
2023-04-26T04:45:55.747Z,41.10
2023-04-26T04:48:26.502Z,41.49
2023-04-26T04:50:58.276Z,40.83
2023-04-26T04:53:28.970Z,41.82
2023-04-26T04:55:59.541Z,42.49
2023-04-26T04:58:30.126Z,42.43
2023-04-26T05:01:05.381Z,41.93
2023-04-26T05:03:48.060Z,41.92
2023-04-26T05:06:18.656Z,41.54
2023-04-26T05:08:54.114Z,41.99
2023-04-26T05:11:24.604Z,40.25
2023-04-26T05:13:54.987Z,40.52
2023-04-26T05:16:25.783Z,41.13
2023-04-26T05:18:56.580Z,40.89
2023-04-26T05:21:27.676Z,41.10
2023-04-26T05:23:58.141Z,41.15
2023-04-26T05:26:29.115Z,40.49
2023-04-26T05:29:25.659Z,40.13
2023-04-26T05:32:05.709Z,40.81
2023-04-26T05:34:46.534Z,40.37
2023-04-26T05:37:19.590Z,41.11
2023-04-26T05:39:50.923Z,41.10
2023-04-26T05:42:21.335Z,40.75
2023-04-26T05:44:57.397Z,40.19
2023-04-26T05:47:27.904Z,39.88
2023-04-26T05:49:58.669Z,40.43
2023-04-26T05:52:29.891Z,39.98
2023-04-26T05:55:05.129Z,40.94
2023-04-26T05:57:36.181Z,40.68
2023-04-26T06:00:07.796Z,41.04
2023-04-26T06:02:48.255Z,39.51
2023-04-26T06:05:21.138Z,39.53
2023-04-26T06:07:52.133Z,40.35
2023-04-26T06:10:23.074Z,40.55
2023-04-26T06:12:58.012Z,39.91
2023-04-26T06:15:30.945Z,39.52
2023-04-26T06:18:02.419Z,39.16
2023-04-26T06:20:36.139Z,40.23
2023-04-26T06:23:09.444Z,40.25
2023-04-26T06:25:43.760Z,39.46
2023-04-26T06:28:14.951Z,39.58
2023-04-26T06:30:45.918Z,39.65
2023-04-26T06:33:17.450Z,40.03
2023-04-26T06:35:48.689Z,39.28
2023-04-26T06:38:19.140Z,40.58
2023-04-26T06:40:49.592Z,39.30
2023-04-26T06:43:20.983Z,39.66
2023-04-26T06:46:00.456Z,40.60
2023-04-26T06:48:30.869Z,39.53
2023-04-26T06:51:01.390Z,38.94
2023-04-26T06:53:31.755Z,39.02
2023-04-26T06:56:02.287Z,39.15
2023-04-26T06:58:32.660Z,40.21
2023-04-26T07:01:03.611Z,39.22
2023-04-26T07:03:34.478Z,39.91
2023-04-26T07:06:05.991Z,39.26
2023-04-26T07:08:36.387Z,39.51
2023-04-26T07:11:13.122Z,40.29
2023-04-26T07:13:43.689Z,39.81
2023-04-26T07:16:14.239Z,40.42
2023-04-26T07:18:45.306Z,39.70
2023-04-26T07:21:16.110Z,39.34
2023-04-26T07:23:47.538Z,39.34
2023-04-26T07:26:17.914Z,39.84
2023-04-26T07:28:48.493Z,39.77
2023-04-26T07:31:18.887Z,39.95
2023-04-26T07:33:49.899Z,39.92
2023-04-26T07:36:21.076Z,39.24
2023-04-26T07:38:53.586Z,39.24
2023-04-26T07:41:24.305Z,38.58
2023-04-26T07:43:55.234Z,39.55
2023-04-26T07:46:25.766Z,39.33
2023-04-26T07:48:56.282Z,38.64
2023-04-26T07:51:26.653Z,39.75
2023-04-26T07:53:59.827Z,39.33
2023-04-26T07:56:29.557Z,39.25
2023-04-26T07:59:00.037Z,38.30
2023-04-26T08:01:30.618Z,38.78
2023-04-26T08:04:02.476Z,39.19
2023-04-26T08:06:34.776Z,39.68
2023-04-26T08:09:06.820Z,38.87
2023-04-26T08:11:42.061Z,38.66
2023-04-26T08:14:17.667Z,38.33
2023-04-26T08:16:48.222Z,38.77
2023-04-26T08:19:18.894Z,39.53
2023-04-26T08:21:49.954Z,39.60
2023-04-26T08:24:28.457Z,39.33
2023-04-26T08:27:03.366Z,38.66
2023-04-26T08:29:36.473Z,39.62
2023-04-26T08:32:09.994Z,39.21
2023-04-26T08:34:40.636Z,39.45
2023-04-26T08:37:12.774Z,39.22
2023-04-26T08:39:43.390Z,38.36
2023-04-26T08:42:18.593Z,38.67
2023-04-26T08:44:49.036Z,39.32
2023-04-26T08:47:26.897Z,39.64
2023-04-26T08:50:04.320Z,38.38
2023-04-26T08:52:35.165Z,39.56
2023-04-26T08:55:07.196Z,38.28
2023-04-26T08:57:38.380Z,38.89
2023-04-26T09:00:16.167Z,39.24
2023-04-26T09:02:53.098Z,39.69
2023-04-26T09:05:28.724Z,39.22
2023-04-26T09:08:04.995Z,39.39
2023-04-26T09:10:35.564Z,39.13
2023-04-26T09:13:05.782Z,38.75
2023-04-26T09:15:36.151Z,39.04
2023-04-26T09:18:21.312Z,38.79
2023-04-26T09:21:10.465Z,38.65
2023-04-26T09:24:05.863Z,38.86
2023-04-26T09:26:36.252Z,39.56
2023-04-26T09:29:32.994Z,39.20
2023-04-26T09:32:04.239Z,38.80
2023-04-26T09:34:48.504Z,39.59
2023-04-26T09:37:21.801Z,38.79
2023-04-26T09:39:52.682Z,38.96
2023-04-26T09:42:23.192Z,38.68
2023-04-26T09:44:55.407Z,38.87
2023-04-26T09:47:45.528Z,38.53
2023-04-26T09:50:27.301Z,38.85
2023-04-26T09:52:58.352Z,39.52
2023-04-26T09:55:35.453Z,38.67
2023-04-26T09:58:13.400Z,38.69
2023-04-26T10:00:44.932Z,38.50
2023-04-26T10:03:15.975Z,39.64
2023-04-26T10:05:47.956Z,39.80
2023-04-26T10:08:18.395Z,39.50
2023-04-26T10:10:49.935Z,38.79
2023-04-26T10:13:21.476Z,39.75
2023-04-26T10:15:52.999Z,38.62
2023-04-26T10:18:28.107Z,39.37
2023-04-26T10:21:04.364Z,38.65
2023-04-26T10:23:35.803Z,39.74
2023-04-26T10:26:06.714Z,39.37
2023-04-26T10:28:59.904Z,39.47
2023-04-26T10:32:07.498Z,38.58
2023-04-26T10:34:39.182Z,38.56
2023-04-26T10:37:10.805Z,39.46
2023-04-26T10:39:45.354Z,38.65
2023-04-26T10:42:30.088Z,39.22
2023-04-26T10:45:01.906Z,38.59
2023-04-26T10:47:38.988Z,39.76
2023-04-26T10:50:11.479Z,39.44
2023-04-26T10:53:05.096Z,39.30
2023-04-26T10:55:45.595Z,38.21
2023-04-26T10:58:48.707Z,39.05
2023-04-26T11:01:19.243Z,38.59
2023-04-26T11:03:59.252Z,39.49
2023-04-26T11:06:50.205Z,38.87
2023-04-26T11:09:50.285Z,38.44
2023-04-26T11:12:29.349Z,39.61
2023-04-26T11:15:02.649Z,39.84
2023-04-26T11:17:39.876Z,38.75
2023-04-26T11:20:18.935Z,39.83
2023-04-26T11:22:49.698Z,39.49
2023-04-26T11:25:20.879Z,39.34
2023-04-26T11:27:51.263Z,39.44
2023-04-26T11:30:22.676Z,39.04
2023-04-26T11:32:53.222Z,38.58
2023-04-26T11:35:25.268Z,39.62
2023-04-26T11:37:55.833Z,39.25
2023-04-26T11:40:29.242Z,38.62
2023-04-26T11:43:10.104Z,39.48
2023-04-26T11:45:41.279Z,39.27
2023-04-26T11:48:14.517Z,38.62
2023-04-26T11:51:01.582Z,38.64
2023-04-26T11:53:42.575Z,38.73
2023-04-26T11:56:22.082Z,39.06
2023-04-26T11:58:54.558Z,39.74
2023-04-26T12:01:25.963Z,39.73
2023-04-26T12:04:01.651Z,39.36
2023-04-26T12:06:35.369Z,38.67
2023-04-26T12:09:10.763Z,39.03
2023-04-26T12:11:42.849Z,39.82
2023-04-26T12:14:13.343Z,39.29
2023-04-26T12:16:45.759Z,38.89
2023-04-26T12:19:16.758Z,39.83
2023-04-26T12:21:47.239Z,39.83
2023-04-26T12:24:29.001Z,39.79
2023-04-26T12:27:00.378Z,39.30
2023-04-26T12:29:33.557Z,39.81
2023-04-26T12:32:04.684Z,39.67
2023-04-26T12:34:36.205Z,39.22
2023-04-26T12:37:07.077Z,39.75
2023-04-26T12:39:40.698Z,39.75
2023-04-26T12:42:11.946Z,39.93
2023-04-26T12:44:42.314Z,39.88
2023-04-26T12:47:13.100Z,38.86
2023-04-26T12:49:43.954Z,39.88
2023-04-26T12:52:14.335Z,38.87
2023-04-26T12:54:44.914Z,38.83
2023-04-26T12:57:16.093Z,39.81
2023-04-26T12:59:46.903Z,38.86
2023-04-26T13:02:17.300Z,39.70
2023-04-26T13:04:48.187Z,39.33
2023-04-26T13:07:19.004Z,39.60
2023-04-26T13:09:58.193Z,38.92
2023-04-26T13:12:29.362Z,39.11
2023-04-26T13:15:00.253Z,39.54
2023-04-26T13:17:30.979Z,38.90
2023-04-26T13:20:01.482Z,39.01
2023-04-26T13:22:31.780Z,40.06
2023-04-26T13:25:02.519Z,39.89
2023-04-26T13:27:33.109Z,39.71
2023-04-26T13:30:03.976Z,38.82
2023-04-26T13:32:34.206Z,39.85
2023-04-26T13:35:05.799Z,40.21
2023-04-26T13:37:36.238Z,39.47
2023-04-26T13:40:07.689Z,39.70
2023-04-26T13:42:39.281Z,39.09
2023-04-26T13:45:16.607Z,39.94
2023-04-26T13:47:48.030Z,38.94
2023-04-26T13:50:21.231Z,39.19
2023-04-26T13:52:52.474Z,39.30
2023-04-26T13:55:23.151Z,39.33
2023-04-26T13:57:53.780Z,39.95
2023-04-26T14:00:24.810Z,39.62
2023-04-26T14:02:56.536Z,39.64
2023-04-26T14:05:27.805Z,39.49
2023-04-26T14:07:59.110Z,39.18
2023-04-26T14:10:29.502Z,39.31
2023-04-26T14:13:19.685Z,40.26
2023-04-26T14:15:50.531Z,39.40
2023-04-26T14:18:21.024Z,40.03
2023-04-26T14:20:51.506Z,39.69
2023-04-26T14:23:22.003Z,40.05
2023-04-26T14:25:58.997Z,39.85
2023-04-26T14:28:33.910Z,40.08
2023-04-26T14:31:04.569Z,39.81
2023-04-26T14:33:35.426Z,39.53
2023-04-26T14:36:06.335Z,40.16
2023-04-26T14:38:36.746Z,39.28
2023-04-26T14:41:08.239Z,39.07
2023-04-26T14:43:43.162Z,40.23
2023-04-26T14:46:14.013Z,39.70
2023-04-26T14:48:47.395Z,39.07
2023-04-26T14:51:18.002Z,39.40
2023-04-26T14:53:48.616Z,40.24
2023-04-26T14:56:18.949Z,39.39
2023-04-26T14:58:52.236Z,39.33
2023-04-26T15:01:23.229Z,39.42
2023-04-26T15:03:59.362Z,39.42
2023-04-26T15:06:32.325Z,39.12
2023-04-26T15:09:02.953Z,39.22
2023-04-26T15:11:35.272Z,40.33
2023-04-26T15:14:05.845Z,39.62
2023-04-26T15:16:37.157Z,40.13
2023-04-26T15:19:09.011Z,39.42
2023-04-26T15:21:39.490Z,39.23
2023-04-26T15:24:10.327Z,39.42
2023-04-26T15:26:41.051Z,39.76
2023-04-26T15:29:11.439Z,39.70
2023-04-26T15:31:42.037Z,40.65
2023-04-26T15:34:12.483Z,39.62
2023-04-26T15:36:43.037Z,39.32
2023-04-26T15:39:13.693Z,39.50
2023-04-26T15:41:44.363Z,39.49
2023-04-26T15:44:14.810Z,40.55
2023-04-26T15:46:46.069Z,39.53
2023-04-26T15:49:16.360Z,39.75
2023-04-26T15:51:47.018Z,39.73
2023-04-26T15:54:17.522Z,39.84
2023-04-26T15:57:07.968Z,39.58
2023-04-26T15:59:41.035Z,39.98
2023-04-26T16:02:12.082Z,39.67
2023-04-26T16:04:42.994Z,40.16
2023-04-26T16:07:14.046Z,39.72
2023-04-26T16:09:44.303Z,40.54
2023-04-26T16:12:23.315Z,40.48
2023-04-26T16:14:54.180Z,40.57
2023-04-26T16:17:24.678Z,40.76
2023-04-26T16:19:54.849Z,39.66
2023-04-26T16:22:25.435Z,40.59
2023-04-26T16:24:55.821Z,40.62
2023-04-26T16:27:28.076Z,40.46
2023-04-26T16:29:59.156Z,40.74
2023-04-26T16:32:32.003Z,39.69
2023-04-26T16:35:03.106Z,40.86
2023-04-26T16:37:33.543Z,39.52
2023-04-26T16:40:04.158Z,40.33
2023-04-26T16:42:34.509Z,40.80
2023-04-26T16:45:05.074Z,39.96
2023-04-26T16:47:36.580Z,40.93
2023-04-26T16:50:07.624Z,40.52
2023-04-26T16:52:38.171Z,40.19
2023-04-26T16:55:10.141Z,40.02
2023-04-26T16:57:40.484Z,39.67
2023-04-26T17:00:13.074Z,40.12
2023-04-26T17:02:43.755Z,40.38
2023-04-26T17:05:15.139Z,40.95
2023-04-26T17:07:45.552Z,39.69
2023-04-26T17:10:24.119Z,40.62
2023-04-26T17:12:54.522Z,40.68
2023-04-26T17:15:24.842Z,40.80
2023-04-26T17:17:55.258Z,40.35
2023-04-26T17:20:26.079Z,40.78
2023-04-26T17:22:58.356Z,40.02
2023-04-26T17:25:29.419Z,40.52
2023-04-26T17:28:00.657Z,39.94
2023-04-26T17:30:46.859Z,39.93
2023-04-26T17:33:17.888Z,40.02
2023-04-26T17:35:48.833Z,40.26
2023-04-26T17:38:20.201Z,39.95
2023-04-26T17:40:55.585Z,40.00
2023-04-26T17:43:26.062Z,40.69
2023-04-26T17:45:56.898Z,39.97
2023-04-26T17:48:27.311Z,40.68
2023-04-26T17:50:58.494Z,40.29
2023-04-26T17:53:29.030Z,40.22
2023-04-26T17:56:02.250Z,40.86
2023-04-26T17:58:33.231Z,40.05
2023-04-26T18:01:04.219Z,40.04
2023-04-26T18:03:37.082Z,40.94
2023-04-26T18:06:08.774Z,40.81
2023-04-26T18:08:39.332Z,40.16
2023-04-26T18:11:10.067Z,41.06
2023-04-26T18:13:40.285Z,40.44
2023-04-26T18:16:10.967Z,40.69
2023-04-26T18:18:44.060Z,40.99
2023-04-26T18:21:34.156Z,40.45
2023-04-26T18:24:05.203Z,40.84
2023-04-26T18:26:36.030Z,40.99
2023-04-26T18:29:06.609Z,40.93
2023-04-26T18:31:37.103Z,40.20
2023-04-26T18:34:11.111Z,40.69
2023-04-26T18:36:42.485Z,41.28
2023-04-26T18:39:13.078Z,40.40
2023-04-26T18:41:44.259Z,41.21
2023-04-26T18:44:14.896Z,41.13
2023-04-26T18:46:46.094Z,40.69
2023-04-26T18:49:16.552Z,40.57
2023-04-26T18:51:47.505Z,40.51
2023-04-26T18:54:18.245Z,40.16
2023-04-26T18:56:48.597Z,40.58
2023-04-26T18:59:19.238Z,40.24
2023-04-26T19:01:50.691Z,40.57
2023-04-26T19:04:21.493Z,40.24
2023-04-26T19:06:52.157Z,41.33
2023-04-26T19:09:23.255Z,41.32
2023-04-26T19:11:54.108Z,41.12
2023-04-26T19:14:25.121Z,40.19
2023-04-26T19:17:00.219Z,40.28
2023-04-26T19:19:33.675Z,40.38
2023-04-26T19:22:04.923Z,40.45
2023-04-26T19:24:36.132Z,41.13
2023-04-26T19:27:06.749Z,41.28
2023-04-26T19:29:40.193Z,40.72
2023-04-26T19:32:10.579Z,40.23
2023-04-26T19:34:42.156Z,40.88
2023-04-26T19:37:14.543Z,41.07
2023-04-26T19:39:53.150Z,40.99
2023-04-26T19:42:23.507Z,41.09
2023-04-26T19:44:53.915Z,41.38
2023-04-26T19:47:24.427Z,41.14
2023-04-26T19:49:57.007Z,40.64
2023-04-26T19:52:27.975Z,41.23
2023-04-26T19:54:59.138Z,41.11
2023-04-26T19:57:29.307Z,40.30
2023-04-26T19:59:59.855Z,41.09
2023-04-26T20:02:31.249Z,40.48
2023-04-26T20:05:01.590Z,40.34
2023-04-26T20:07:31.893Z,40.56
2023-04-26T20:10:02.326Z,41.40
2023-04-26T20:12:34.982Z,40.96
2023-04-26T20:15:05.492Z,40.79
2023-04-26T20:17:35.981Z,41.41
2023-04-26T20:20:11.881Z,40.86
2023-04-26T20:23:02.605Z,41.43
2023-04-26T20:25:33.461Z,40.79
2023-04-26T20:28:08.283Z,40.51
2023-04-26T20:30:38.992Z,41.49
2023-04-26T20:33:10.099Z,41.30
2023-04-26T20:35:44.867Z,41.10
2023-04-26T20:38:20.192Z,41.19
2023-04-26T20:40:50.616Z,40.66
2023-04-26T20:43:21.432Z,41.23
2023-04-26T20:45:53.374Z,40.73
2023-04-26T20:48:28.296Z,40.69
2023-04-26T20:51:15.882Z,41.47
2023-04-26T20:53:48.984Z,40.42
2023-04-26T20:56:20.170Z,40.55
2023-04-26T20:58:53.261Z,40.96
2023-04-26T21:01:23.662Z,41.50
2023-04-26T21:03:54.221Z,40.90
2023-04-26T21:06:24.763Z,41.08
2023-04-26T21:08:59.628Z,41.59
2023-04-26T21:11:30.059Z,40.72
2023-04-26T21:14:03.217Z,41.45
2023-04-26T21:16:41.490Z,40.78
2023-04-26T21:19:12.096Z,41.03
2023-04-26T21:21:42.695Z,40.93
2023-04-26T21:24:16.141Z,41.62
2023-04-26T21:26:46.617Z,40.92
2023-04-26T21:29:33.281Z,40.89
2023-04-26T21:32:03.836Z,40.89
2023-04-26T21:34:34.212Z,41.18
2023-04-26T21:37:05.256Z,40.90
2023-04-26T21:39:36.582Z,41.66
2023-04-26T21:42:07.281Z,41.25
2023-04-26T21:44:37.682Z,41.80
2023-04-26T21:47:08.267Z,41.33
2023-04-26T21:49:40.992Z,41.82
2023-04-26T21:52:12.149Z,41.74
2023-04-26T21:54:43.380Z,41.50
2023-04-26T21:57:13.815Z,41.75
2023-04-26T21:59:45.411Z,41.01
2023-04-26T22:02:18.581Z,41.04
2023-04-26T22:04:49.230Z,41.53
2023-04-26T22:07:19.615Z,41.42
2023-04-26T22:09:50.220Z,41.84
2023-04-26T22:12:23.438Z,41.24
2023-04-26T22:14:56.469Z,41.87
2023-04-26T22:17:29.522Z,42.15
2023-04-26T22:19:59.932Z,41.91
2023-04-26T22:22:30.278Z,41.54
2023-04-26T22:25:01.235Z,41.71
2023-04-26T22:27:49.102Z,42.16
2023-04-26T22:30:25.424Z,41.69
2023-04-26T22:32:58.881Z,41.60
2023-04-26T22:35:31.529Z,42.14
2023-04-26T22:38:02.043Z,42.05
2023-04-26T22:40:34.155Z,42.23
2023-04-26T22:43:04.539Z,42.01
2023-04-26T22:45:35.413Z,42.22
2023-04-26T22:48:06.040Z,41.93
2023-04-26T22:50:37.249Z,42.33
2023-04-26T22:53:08.332Z,41.64
2023-04-26T22:55:38.699Z,42.38
2023-04-26T22:58:08.856Z,41.84
2023-04-26T23:00:39.299Z,42.60
2023-04-26T23:03:09.690Z,42.93
2023-04-26T23:05:40.159Z,43.03
2023-04-26T23:08:10.727Z,44.16
2023-04-26T23:10:41.763Z,44.24
2023-04-26T23:13:12.458Z,45.07
2023-04-26T23:15:43.477Z,44.59
2023-04-26T23:18:15.226Z,45.18
2023-04-26T23:20:45.507Z,44.58
2023-04-26T23:23:15.874Z,44.69
2023-04-26T23:25:46.375Z,43.99
2023-04-26T23:28:17.382Z,44.00
2023-04-26T23:30:50.812Z,44.88
2023-04-26T23:33:21.241Z,45.44
2023-04-26T23:35:52.210Z,45.93
2023-04-26T23:38:22.816Z,45.64
2023-04-26T23:40:53.266Z,44.78
2023-04-26T23:43:26.956Z,45.56
2023-04-26T23:45:57.384Z,44.78
2023-04-26T23:48:28.346Z,45.34
2023-04-26T23:50:59.077Z,45.13
2023-04-26T23:53:29.688Z,45.15
2023-04-26T23:56:00.032Z,45.47
2023-04-26T23:58:32.369Z,44.84
